Time;durP1;ratioP1;P1;durP2;ratioP2;P2;SDS_P1;SDS_P2;PMS_P1;PMS_P2;Temp;Humidity;BMP_temperature;BMP_pressure;BME280_temperature;BME280_humidity;BME280_pressure;Samples;Min_cycle;Max_cycle;Signal;HPM_P1;HPM_P2
2021/07/03 00:00:37;;;;;;;14.55;10.57;;;;;;;;;;5079480;28;20039;-76
2021/07/03 00:03:02;;;;;;;15.45;10.25;;;;;;;;;;5085524;28;20019;-77
2021/07/03 00:05:28;;;;;;;14.82;11.00;;;;;;;;;;5087687;28;20032;-77
2021/07/03 00:07:54;;;;;;;14.82;10.65;;;;;;;;;;5085246;28;20027;-76
2021/07/03 00:10:28;;;;;;;15.05;11.00;;;;;;;;;;5074268;28;20028;-77
2021/07/03 00:12:54;;;;;;;14.63;10.90;;;;;;;;;;5081038;28;20028;-76
2021/07/03 00:15:23;;;;;;;15.82;10.52;;;;;;;;;;5076166;28;20070;-76
2021/07/03 00:17:52;;;;;;;15.70;10.15;;;;;;;;;;5083280;28;20104;-76
2021/07/03 00:20:18;;;;;;;17.95;10.55;;;;;;;;;;5071517;28;20040;-77
2021/07/03 00:22:53;;;;;;;13.27;10.43;;;;;;;;;;5088985;28;20468;-76
2021/07/03 00:25:19;;;;;;;13.98;9.98;;;;;;;;;;5073375;28;20020;-77
2021/07/03 00:27:45;;;;;;;15.40;11.15;;;;;;;;;;5089037;28;20035;-76
2021/07/03 00:30:11;;;;;;;17.83;11.23;;;;;;;;;;5093014;28;20024;-75
2021/07/03 00:32:43;;;;;;;15.93;11.27;;;;;;;;;;5090305;28;20035;-76
2021/07/03 00:35:09;;;;;;;14.55;10.50;;;;;;;;;;5074161;28;20027;-76
2021/07/03 00:37:35;;;;;;;14.20;9.43;;;;;;;;;;5088941;28;20063;-76
2021/07/03 00:40:00;;;;;;;14.85;10.05;;;;;;;;;;5094211;28;20071;-76
2021/07/03 00:42:26;;;;;;;14.60;9.82;;;;;;;;;;5078255;28;20078;-76
2021/07/03 00:44:53;;;;;;;14.45;10.10;;;;;;;;;;5088683;28;20028;-77
2021/07/03 00:47:18;;;;;;;19.80;9.85;;;;;;;;;;5091475;28;20031;-76
2021/07/03 00:49:44;;;;;;;13.85;9.50;;;;;;;;;;5085398;28;20490;-75
2021/07/03 00:52:11;;;;;;;16.05;11.43;;;;;;;;;;5093853;28;20384;-76
2021/07/03 00:54:39;;;;;;;17.38;9.75;;;;;;;;;;5093798;28;20024;-76
2021/07/03 00:57:05;;;;;;;16.52;10.13;;;;;;;;;;5093485;28;20602;-76
2021/07/03 01:00:01;;;;;;;13.93;10.38;;;;;;;;;;5093508;28;20028;-76
2021/07/03 01:02:26;;;;;;;15.05;10.02;;;;;;;;;;5091761;28;20491;-76
2021/07/03 01:04:52;;;;;;;13.73;10.40;;;;;;;;;;5055257;28;20060;-76
2021/07/03 01:07:40;;;;;;;16.85;10.70;;;;;;;;;;5077559;28;20027;-76
2021/07/03 01:10:22;;;;;;;17.67;11.25;;;;;;;;;;5090181;28;20081;-76
2021/07/03 01:12:49;;;;;;;17.42;10.57;;;;;;;;;;5089535;28;20035;-76
2021/07/03 01:15:14;;;;;;;12.70;10.32;;;;;;;;;;5075228;28;20031;-77
2021/07/03 01:17:40;;;;;;;18.08;10.95;;;;;;;;;;5078697;28;20387;-76
2021/07/03 01:20:06;;;;;;;17.13;10.40;;;;;;;;;;5086031;28;20020;-76
2021/07/03 01:22:33;;;;;;;15.75;10.55;;;;;;;;;;5082608;28;20556;-76
2021/07/03 01:24:59;;;;;;;12.38;10.73;;;;;;;;;;5073430;28;20024;-76
2021/07/03 01:27:34;;;;;;;15.77;10.23;;;;;;;;;;5082390;28;20048;-76
2021/07/03 01:30:00;;;;;;;13.48;9.23;;;;;;;;;;5051682;28;20170;-77
2021/07/03 01:32:25;;;;;;;11.93;9.43;;;;;;;;;;5066693;28;20145;-76
2021/07/03 01:34:51;;;;;;;17.45;10.73;;;;;;;;;;5052731;28;20094;-75
2021/07/03 01:37:17;;;;;;;14.93;10.30;;;;;;;;;;5034782;28;20032;-76
2021/07/03 01:39:42;;;;;;;16.95;10.63;;;;;;;;;;5052539;28;20032;-76
2021/07/03 01:42:29;;;;;;;13.88;9.82;;;;;;;;;;5061133;28;20028;-76
2021/07/03 01:44:55;;;;;;;14.05;9.85;;;;;;;;;;5071970;28;20025;-75
2021/07/03 01:47:20;;;;;;;15.70;9.75;;;;;;;;;;5072754;28;20020;-76
2021/07/03 01:49:50;;;;;;;15.05;10.25;;;;;;;;;;5071136;28;20028;-76
2021/07/03 01:52:17;;;;;;;13.93;10.70;;;;;;;;;;5068191;28;20024;-76
2021/07/03 01:54:43;;;;;;;16.85;10.52;;;;;;;;;;5052226;28;20040;-76
2021/07/03 01:57:09;;;;;;;14.98;9.05;;;;;;;;;;5052674;28;20033;-77
2021/07/03 01:59:34;;;;;;;15.95;9.20;;;;;;;;;;5052407;28;20028;-76
2021/07/03 02:02:01;;;;;;;12.68;8.65;;;;;;;;;;5052578;28;20033;-76
2021/07/03 02:04:36;;;;;;;17.35;9.48;;;;;;;;;;5064014;28;20020;-76
2021/07/03 02:07:01;;;;;;;12.50;8.95;;;;;;;;;;5062566;28;20464;-76
2021/07/03 02:09:27;;;;;;;13.98;9.23;;;;;;;;;;5052640;28;20025;-76
2021/07/03 02:11:55;;;;;;;13.80;10.00;;;;;;;;;;5054102;28;20036;-76
2021/07/03 02:14:20;;;;;;;13.38;9.98;;;;;;;;;;5066024;28;20063;-75
2021/07/03 02:16:46;;;;;;;12.98;9.82;;;;;;;;;;5076460;28;20016;-75
2021/07/03 02:19:18;;;;;;;14.68;9.65;;;;;;;;;;5076321;28;20024;-76
2021/07/03 02:21:47;;;;;;;16.38;9.55;;;;;;;;;;5076505;28;20471;-76
2021/07/03 02:24:12;;;;;;;12.88;9.00;;;;;;;;;;5076441;28;20029;-76
2021/07/03 02:26:40;;;;;;;16.40;9.90;;;;;;;;;;5058450;28;20025;-76
2021/07/03 02:29:06;;;;;;;14.35;9.25;;;;;;;;;;5074839;28;20052;-75
2021/07/03 02:31:31;;;;;;;12.43;9.40;;;;;;;;;;5075918;28;20395;-76
2021/07/03 02:34:20;;;;;;;14.18;9.32;;;;;;;;;;5075851;28;20024;-76
2021/07/03 02:36:45;;;;;;;10.57;9.13;;;;;;;;;;5076068;28;20016;-76
2021/07/03 02:39:11;;;;;;;16.80;9.55;;;;;;;;;;5075906;28;20030;-77
2021/07/03 02:41:50;;;;;;;15.30;9.63;;;;;;;;;;5076083;28;20028;-76
2021/07/03 02:44:15;;;;;;;13.27;9.48;;;;;;;;;;5076117;28;20028;-75
2021/07/03 02:46:41;;;;;;;12.57;9.57;;;;;;;;;;5076081;28;20021;-76
2021/07/03 02:49:06;;;;;;;13.82;9.68;;;;;;;;;;5075554;28;20430;-76
2021/07/03 02:51:34;;;;;;;17.20;10.43;;;;;;;;;;5073784;28;20103;-74
2021/07/03 02:54:00;;;;;;;19.77;10.07;;;;;;;;;;5075003;28;20507;-76
2021/07/03 02:56:31;;;;;;;16.45;9.48;;;;;;;;;;5075669;28;20020;-76
2021/07/03 02:58:57;;;;;;;16.35;10.35;;;;;;;;;;5057625;28;20117;-76
2021/07/03 03:01:22;;;;;;;15.98;9.95;;;;;;;;;;5075691;28;20036;-76
2021/07/03 03:03:57;;;;;;;12.68;10.07;;;;;;;;;;5075510;28;20024;-76
2021/07/03 03:06:22;;;;;;;12.57;8.70;;;;;;;;;;5068749;28;20535;-76
2021/07/03 03:08:48;;;;;;;16.02;9.68;;;;;;;;;;5088969;28;20099;-77
2021/07/03 03:11:17;;;;;;;12.90;9.35;;;;;;;;;;5095807;28;20028;-76
2021/07/03 03:13:42;;;;;;;13.95;9.15;;;;;;;;;;5095558;28;20099;-76
2021/07/03 03:16:08;;;;;;;14.02;9.18;;;;;;;;;;5095131;28;20059;-77
2021/07/03 03:18:34;;;;;;;11.98;9.07;;;;;;;;;;5083459;28;20060;-77
2021/07/03 03:21:00;;;;;;;17.58;10.15;;;;;;;;;;5074732;28;20024;-77
2021/07/03 03:23:25;;;;;;;16.08;9.30;;;;;;;;;;5074212;28;20032;-76
2021/07/03 03:25:56;;;;;;;14.48;9.63;;;;;;;;;;5074613;28;20029;-77
2021/07/03 03:28:26;;;;;;;14.05;9.25;;;;;;;;;;5087490;28;20032;-77
2021/07/03 03:30:51;;;;;;;18.23;10.38;;;;;;;;;;5095289;28;20057;-76
2021/07/03 03:33:16;;;;;;;15.15;10.40;;;;;;;;;;5095273;28;20028;-76
2021/07/03 03:35:44;;;;;;;13.55;9.38;;;;;;;;;;5070119;28;20085;-77
2021/07/03 03:38:09;;;;;;;16.63;9.32;;;;;;;;;;5095440;28;20380;-76
2021/07/03 03:40:36;;;;;;;14.93;8.73;;;;;;;;;;5094481;28;20038;-77
2021/07/03 03:43:09;;;;;;;13.75;8.73;;;;;;;;;;5094020;28;20028;-76
2021/07/03 03:45:35;;;;;;;14.32;9.10;;;;;;;;;;5094832;28;20028;-76
2021/07/03 03:48:01;;;;;;;14.23;8.65;;;;;;;;;;5095210;28;20028;-76
2021/07/03 03:50:27;;;;;;;12.90;8.88;;;;;;;;;;5084870;28;20074;-77
2021/07/03 03:52:53;;;;;;;12.48;8.20;;;;;;;;;;5074820;28;20029;-77
2021/07/03 03:55:18;;;;;;;16.52;8.95;;;;;;;;;;5074673;28;20035;-77
2021/07/03 03:57:46;;;;;;;11.27;8.05;;;;;;;;;;5072896;28;20468;-77
2021/07/03 04:00:13;;;;;;;11.48;7.53;;;;;;;;;;5074269;28;20074;-77
2021/07/03 04:02:38;;;;;;;12.38;8.52;;;;;;;;;;5074385;28;20040;-77
2021/07/03 04:05:27;;;;;;;12.52;8.05;;;;;;;;;;5063097;28;20036;-77
2021/07/03 04:07:53;;;;;;;9.57;7.03;;;;;;;;;;5094893;28;20034;-77
2021/07/03 04:10:18;;;;;;;11.20;7.25;;;;;;;;;;5094467;28;20028;-76
2021/07/03 04:12:52;;;;;;;11.45;7.43;;;;;;;;;;5078256;28;20033;-77
2021/07/03 04:15:17;;;;;;;;;;;;;;;;;;5074653;28;20020;-73
2021/07/03 04:17:43;;;;;;;8.82;6.85;;;;;;;;;;5092859;28;20011;-73
2021/07/03 04:20:15;;;;;;;11.02;6.95;;;;;;;;;;5083350;28;20119;-73
2021/07/03 04:22:41;;;;;;;9.55;7.28;;;;;;;;;;5074077;28;20020;-73
2021/07/03 04:25:19;;;;;;;10.02;7.07;;;;;;;;;;5074055;28;20078;-73
2021/07/03 04:28:12;;;;;;;9.98;7.07;;;;;;;;;;5073485;28;20055;-74
2021/07/03 04:30:37;;;;;;;9.70;6.90;;;;;;;;;;5088106;28;20031;-73
2021/07/03 04:33:03;;;;;;;8.63;6.72;;;;;;;;;;5094278;28;20024;-74
2021/07/03 04:35:44;;;;;;;10.75;7.18;;;;;;;;;;5067055;28;20460;-73
2021/07/03 04:38:09;;;;;;;11.38;7.03;;;;;;;;;;5075010;28;20468;-73
2021/07/03 04:40:35;;;;;;;9.15;6.65;;;;;;;;;;5078376;28;20027;-73
2021/07/03 04:43:01;;;;;;;11.57;6.82;;;;;;;;;;5074915;28;20472;-73
2021/07/03 04:45:27;;;;;;;9.13;6.88;;;;;;;;;;5091300;28;20074;-72
2021/07/03 04:47:59;;;;;;;11.18;7.03;;;;;;;;;;5093721;28;20035;-73
2021/07/03 04:50:24;;;;;;;10.75;7.20;;;;;;;;;;5081471;28;20024;-74
2021/07/03 04:52:50;;;;;;;10.73;6.85;;;;;;;;;;5094005;28;20032;-73
2021/07/03 04:55:24;;;;;;;8.18;7.05;;;;;;;;;;5093902;28;20057;-73
2021/07/03 04:57:52;;;;;;;9.48;6.68;;;;;;;;;;5093653;28;20024;-73
2021/07/03 05:00:18;;;;;;;11.48;6.47;;;;;;;;;;5082101;28;20027;-73
2021/07/03 05:02:50;;;;;;;8.93;6.20;;;;;;;;;;5073323;28;20384;-73
2021/07/03 05:05:15;;;;;;;9.50;6.68;;;;;;;;;;5073439;28;20021;-73
2021/07/03 05:07:44;;;;;;;9.10;6.43;;;;;;;;;;5073468;28;20384;-73
2021/07/03 05:10:25;;;;;;;10.07;6.38;;;;;;;;;;5065450;28;20361;-72
2021/07/03 05:12:50;;;;;;;10.00;6.18;;;;;;;;;;5092877;28;20475;-73
2021/07/03 05:15:15;;;;;;;10.07;5.70;;;;;;;;;;5093789;28;20020;-73
2021/07/03 05:17:54;;;;;;;10.07;6.18;;;;;;;;;;5093146;28;20028;-73
2021/07/03 05:20:20;;;;;;;7.90;6.15;;;;;;;;;;5093483;28;20039;-73
2021/07/03 05:22:45;;;;;;;8.75;6.00;;;;;;;;;;5093414;28;20028;-73
2021/07/03 05:25:17;;;;;;;7.28;5.53;;;;;;;;;;5082324;28;20534;-72
2021/07/03 05:27:52;;;;;;;6.95;5.38;;;;;;;;;;5074453;28;20106;-73
2021/07/03 05:30:18;;;;;;;8.80;5.72;;;;;;;;;;5068515;28;20023;-73
2021/07/03 05:32:44;;;;;;;10.30;5.53;;;;;;;;;;5093625;28;20032;-78
2021/07/03 05:35:33;;;;;;;7.60;5.10;;;;;;;;;;5096737;28;20019;-76
2021/07/03 05:37:59;;;;;;;7.22;5.50;;;;;;;;;;5077439;28;20550;-77
2021/07/03 05:40:27;;;;;;;7.95;5.50;;;;;;;;;;5087797;28;20016;-78
2021/07/03 05:42:56;;;;;;;7.38;5.38;;;;;;;;;;5096780;28;20407;-77
2021/07/03 05:45:21;;;;;;;7.50;5.05;;;;;;;;;;5091255;28;20052;-74
2021/07/03 05:47:51;;;;;;;9.25;5.80;;;;;;;;;;5093195;28;20109;-77
2021/07/03 05:50:23;;;;;;;7.95;5.40;;;;;;;;;;5101370;28;20020;-79
2021/07/03 05:52:50;;;;;;;8.50;5.40;;;;;;;;;;5085314;28;20036;-78
2021/07/03 05:55:16;;;;;;;9.55;5.70;;;;;;;;;;5102490;28;20024;-77
2021/07/03 05:57:57;;;;;;;8.48;5.38;;;;;;;;;;5101889;28;20027;-76
2021/07/03 06:00:22;;;;;;;8.85;5.13;;;;;;;;;;5101777;28;20074;-77
2021/07/03 06:02:48;;;;;;;9.05;5.45;;;;;;;;;;5100793;28;20028;-78
2021/07/03 06:05:27;;;;;;;6.93;5.28;;;;;;;;;;5099703;28;20063;-78
2021/07/03 06:07:53;;;;;;;7.10;5.43;;;;;;;;;;5100807;28;20055;-78
2021/07/03 06:10:18;;;;;;;9.10;5.18;;;;;;;;;;5100267;28;20024;-77
2021/07/03 06:12:45;;;;;;;9.18;5.10;;;;;;;;;;5097712;28;20043;-77
2021/07/03 06:15:12;;;;;;;6.35;4.63;;;;;;;;;;5080080;28;20089;-78
2021/07/03 06:17:38;;;;;;;9.18;5.00;;;;;;;;;;5077850;28;20472;-79
2021/07/03 06:20:48;;;;;;;7.32;4.90;;;;;;;;;;5089372;28;20035;-79
2021/07/03 06:23:13;;;;;;;5.80;4.20;;;;;;;;;;5079883;28;20064;-78
2021/07/03 06:25:39;;;;;;;4.95;4.10;;;;;;;;;;5079828;28;20039;-77
2021/07/03 06:28:31;;;;;;;8.57;4.68;;;;;;;;;;5079527;28;20040;-76
2021/07/03 06:30:57;;;;;;;10.60;5.18;;;;;;;;;;5093500;28;20024;-77
2021/07/03 06:33:22;;;;;;;9.60;4.55;;;;;;;;;;5099794;28;20043;-76
2021/07/03 06:36:00;;;;;;;10.65;4.55;;;;;;;;;;5069412;28;20094;-78
2021/07/03 06:38:25;;;;;;;7.68;4.18;;;;;;;;;;5075969;28;20025;-75
2021/07/03 06:40:51;;;;;;;8.52;4.75;;;;;;;;;;5082580;28;20035;-77
2021/07/03 06:43:22;;;;;;;6.80;4.80;;;;;;;;;;5076301;28;20028;-76
2021/07/03 06:45:48;;;;;;;11.77;4.30;;;;;;;;;;5085045;28;20027;-77
2021/07/03 06:48:14;;;;;;;8.10;4.10;;;;;;;;;;5096551;28;20491;-76
2021/07/03 06:51:03;;;;;;;7.47;4.43;;;;;;;;;;5095508;28;20131;-75
2021/07/03 06:53:28;;;;;;;6.68;4.50;;;;;;;;;;5082712;28;20036;-76
2021/07/03 06:55:54;;;;;;;8.02;4.35;;;;;;;;;;5075817;28;20021;-76
2021/07/03 06:58:35;;;;;;;9.82;5.05;;;;;;;;;;5088216;28;20499;-77
2021/07/03 07:01:00;;;;;;;8.55;4.63;;;;;;;;;;5089656;28;20527;-77
2021/07/03 07:03:25;;;;;;;11.13;4.30;;;;;;;;;;5096004;28;20067;-77
2021/07/03 07:06:14;;;;;;;8.20;4.38;;;;;;;;;;5095902;28;20121;-77
2021/07/03 07:08:39;;;;;;;9.85;4.30;;;;;;;;;;5081291;28;20056;-76
2021/07/03 07:11:05;;;;;;;5.43;4.10;;;;;;;;;;5078246;28;20099;-76
2021/07/03 07:13:46;;;;;;;7.68;4.20;;;;;;;;;;5075601;28;20036;-75
2021/07/03 07:16:11;;;;;;;7.15;4.05;;;;;;;;;;5089187;28;20161;-77
2021/07/03 07:18:37;;;;;;;6.22;4.28;;;;;;;;;;5095518;28;20103;-76
2021/07/03 07:21:14;;;;;;;9.00;4.20;;;;;;;;;;5077930;28;20074;-77
2021/07/03 07:23:40;;;;;;;8.77;4.40;;;;;;;;;;5095205;28;20038;-76
2021/07/03 07:26:05;;;;;;;7.80;4.20;;;;;;;;;;5076077;28;20029;-76
2021/07/03 07:28:31;;;;;;;6.68;4.32;;;;;;;;;;5080595;28;20044;-77
2021/07/03 07:30:56;;;;;;;5.93;3.90;;;;;;;;;;5095482;28;20122;-77
2021/07/03 07:33:22;;;;;;;6.97;3.80;;;;;;;;;;5077469;28;20117;-76
2021/07/03 07:36:07;;;;;;;8.10;4.05;;;;;;;;;;5090117;28;20028;-77
2021/07/03 07:38:32;;;;;;;5.82;3.90;;;;;;;;;;5090858;28;20024;-76
2021/07/03 07:40:57;;;;;;;6.43;4.00;;;;;;;;;;5089679;28;20078;-76
2021/07/03 07:43:23;;;;;;;6.93;3.92;;;;;;;;;;5090602;28;20036;-77
2021/07/03 07:45:49;;;;;;;4.82;3.65;;;;;;;;;;5069294;28;20496;-78
2021/07/03 07:48:15;;;;;;;6.88;4.28;;;;;;;;;;5081838;28;20024;-77
2021/07/03 07:50:43;;;;;;;4.75;3.67;;;;;;;;;;5093126;28;20020;-76
2021/07/03 07:53:08;;;;;;;7.30;3.97;;;;;;;;;;5091944;28;20028;-76
2021/07/03 07:55:41;;;;;;;13.40;4.82;;;;;;;;;;5086160;28;20042;-76
2021/07/03 07:58:07;;;;;;;8.25;4.20;;;;;;;;;;5092275;28;20059;-77
2021/07/03 08:00:38;;;;;;;6.85;4.30;;;;;;;;;;5094548;28;20086;-75
2021/07/03 08:03:04;;;;;;;6.38;4.40;;;;;;;;;;5091635;28;20027;-72
2021/07/03 08:05:31;;;;;;;7.93;4.63;;;;;;;;;;5094440;28;20024;-73
2021/07/03 08:07:57;;;;;;;7.20;4.78;;;;;;;;;;5091443;28;20028;-73
2021/07/03 08:10:28;;;;;;;7.03;4.50;;;;;;;;;;5078985;28;20024;-73
2021/07/03 08:12:54;;;;;;;5.93;4.53;;;;;;;;;;5085024;28;20082;-72
2021/07/03 08:15:31;;;;;;;9.50;5.03;;;;;;;;;;5087725;28;20024;-73
2021/07/03 08:17:57;;;;;;;7.18;4.50;;;;;;;;;;5076104;28;20677;-73
2021/07/03 08:20:35;;;;;;;7.72;4.55;;;;;;;;;;5074512;28;20023;-73
2021/07/03 08:23:01;;;;;;;7.80;4.15;;;;;;;;;;5078974;28;20024;-73
2021/07/03 08:25:29;;;;;;;6.18;4.38;;;;;;;;;;5080668;28;20024;-75
2021/07/03 08:28:01;;;;;;;7.85;4.05;;;;;;;;;;5074249;28;20570;-75
2021/07/03 08:30:28;;;;;;;5.97;4.30;;;;;;;;;;5062541;28;20032;-73
2021/07/03 08:33:15;;;;;;;7.38;4.28;;;;;;;;;;5041140;28;20031;-77
2021/07/03 08:35:41;;;;;;;8.07;4.45;;;;;;;;;;5066395;28;20484;-77
2021/07/03 08:38:06;;;;;;;5.72;4.32;;;;;;;;;;5036298;28;20039;-77
2021/07/03 08:40:33;;;;;;;6.43;4.30;;;;;;;;;;5063552;28;20464;-77
2021/07/03 08:42:58;;;;;;;5.32;4.05;;;;;;;;;;5072157;28;20027;-74
2021/07/03 08:45:24;;;;;;;8.38;4.32;;;;;;;;;;5074030;28;20388;-74
2021/07/03 08:48:05;;;;;;;5.38;4.10;;;;;;;;;;5066818;28;20052;-74
2021/07/03 08:50:30;;;;;;;10.55;4.10;;;;;;;;;;5074047;28;20024;-74
2021/07/03 08:53:06;;;;;;;7.70;3.85;;;;;;;;;;5058604;28;20350;-73
2021/07/03 08:55:32;;;;;;;6.63;3.97;;;;;;;;;;5049612;28;20028;-73
2021/07/03 08:58:04;;;;;;;7.95;4.30;;;;;;;;;;5073210;28;20070;-74
2021/07/03 09:00:32;;;;;;;7.82;4.32;;;;;;;;;;5074009;28;20453;-74
2021/07/03 09:02:58;;;;;;;6.82;4.35;;;;;;;;;;5070876;28;20404;-73
2021/07/03 09:05:31;;;;;;;8.15;3.97;;;;;;;;;;5053623;28;20028;-74
2021/07/03 09:07:59;;;;;;;7.57;4.15;;;;;;;;;;5063871;28;20024;-74
2021/07/03 09:10:28;;;;;;;7.38;4.07;;;;;;;;;;5073709;28;20028;-73
2021/07/03 09:12:54;;;;;;;5.25;3.85;;;;;;;;;;5067856;28;20473;-74
2021/07/03 09:15:24;;;;;;;5.60;3.85;;;;;;;;;;5062356;28;20025;-73
2021/07/03 09:18:00;;;;;;;5.28;4.00;;;;;;;;;;5069353;28;20473;-74
2021/07/03 09:20:29;;;;;;;6.05;4.03;;;;;;;;;;5072808;28;20475;-74
2021/07/03 09:23:01;;;;;;;6.65;3.83;;;;;;;;;;5062871;28;20119;-74
2021/07/03 09:25:34;;;;;;;6.88;3.83;;;;;;;;;;5073365;28;20078;-74
2021/07/03 09:28:14;;;;;;;5.47;3.58;;;;;;;;;;5066670;28;20127;-74
2021/07/03 09:30:40;;;;;;;7.88;4.32;;;;;;;;;;5076508;28;20028;-74
2021/07/03 09:33:06;;;;;;;6.57;3.80;;;;;;;;;;5075192;28;20051;-76
2021/07/03 09:35:32;;;;;;;5.68;3.67;;;;;;;;;;5070510;28;20020;-78
2021/07/03 09:38:07;;;;;;;7.97;3.90;;;;;;;;;;5078394;28;20028;-77
2021/07/03 09:40:34;;;;;;;6.25;4.00;;;;;;;;;;5090941;28;20028;-77
2021/07/03 09:43:16;;;;;;;7.63;3.97;;;;;;;;;;5092961;28;20020;-78
2021/07/03 09:45:48;;;;;;;5.18;3.38;;;;;;;;;;5092815;28;20115;-77
2021/07/03 09:48:14;;;;;;;5.53;3.20;;;;;;;;;;5092605;28;20129;-76
2021/07/03 09:50:40;;;;;;;4.65;3.22;;;;;;;;;;5074716;28;20131;-77
2021/07/03 09:53:08;;;;;;;6.75;3.17;;;;;;;;;;5092431;28;20417;-77
2021/07/03 09:55:35;;;;;;;5.90;3.03;;;;;;;;;;5087063;28;20020;-77
2021/07/03 09:58:03;;;;;;;8.30;3.30;;;;;;;;;;5080530;28;20024;-78
2021/07/03 10:00:28;;;;;;;5.38;3.10;;;;;;;;;;5091234;28;20031;-77
2021/07/03 10:02:55;;;;;;;4.28;2.80;;;;;;;;;;5074657;28;20025;-77
2021/07/03 10:05:21;;;;;;;5.80;3.13;;;;;;;;;;5071516;28;20051;-78
2021/07/03 10:07:53;;;;;;;6.85;2.83;;;;;;;;;;5071371;28;20032;-77
2021/07/03 10:10:23;;;;;;;4.13;3.08;;;;;;;;;;5071629;28;20077;-77
2021/07/03 10:13:08;;;;;;;3.67;2.72;;;;;;;;;;5072889;28;20078;-77
2021/07/03 10:15:35;;;;;;;3.35;2.53;;;;;;;;;;5072266;28;20105;-77
2021/07/03 10:18:28;;;;;;;5.03;2.80;;;;;;;;;;5071539;28;20454;-79
2021/07/03 10:20:54;;;;;;;4.57;2.70;;;;;;;;;;5071464;28;20076;-77
2021/07/03 10:23:20;;;;;;;3.63;2.70;;;;;;;;;;5072239;28;20024;-78
2021/07/03 10:25:49;;;;;;;3.13;2.30;;;;;;;;;;5064362;28;20085;-77
2021/07/03 10:28:33;;;;;;;4.60;2.40;;;;;;;;;;5072006;28;20039;-78
2021/07/03 10:31:25;;;;;;;3.50;2.10;;;;;;;;;;5071898;28;20131;-77
2021/07/03 10:33:51;;;;;;;3.30;1.98;;;;;;;;;;5071833;28;20032;-77
2021/07/03 10:36:28;;;;;;;3.03;1.88;;;;;;;;;;5058310;28;20028;-77
2021/07/03 10:38:56;;;;;;;2.67;1.90;;;;;;;;;;5037850;28;20025;-76
2021/07/03 10:41:24;;;;;;;3.10;1.90;;;;;;;;;;5065134;28;20036;-77
2021/07/03 10:44:06;;;;;;;3.13;1.98;;;;;;;;;;5071989;28;20055;-78
2021/07/03 10:46:40;;;;;;;3.28;1.85;;;;;;;;;;5054428;28;20028;-76
2021/07/03 10:49:09;;;;;;;2.95;1.90;;;;;;;;;;5052966;28;20031;-78
2021/07/03 10:51:46;;;;;;;2.50;1.90;;;;;;;;;;5072241;28;20025;-78
2021/07/03 10:54:12;;;;;;;2.15;1.77;;;;;;;;;;5075229;28;20468;-77
2021/07/03 10:56:47;;;;;;;3.50;2.00;;;;;;;;;;5075588;28;20075;-76
2021/07/03 10:59:15;;;;;;;3.20;2.13;;;;;;;;;;5075778;28;20049;-76
2021/07/03 11:01:41;;;;;;;2.80;2.15;;;;;;;;;;5056500;28;20043;-76
2021/07/03 11:04:16;;;;;;;2.97;1.92;;;;;;;;;;5065537;28;20031;-77
2021/07/03 11:06:43;;;;;;;2.38;2.00;;;;;;;;;;5064618;28;20060;-77
2021/07/03 11:09:31;;;;;;;2.75;1.88;;;;;;;;;;5073299;28;20047;-77
2021/07/03 11:12:10;;;;;;;3.15;2.08;;;;;;;;;;5036021;28;20044;-76
2021/07/03 11:15:00;;;;;;;3.05;1.80;;;;;;;;;;5071834;28;20164;-76
2021/07/03 11:17:26;;;;;;;2.60;2.00;;;;;;;;;;5074660;28;20380;-76
2021/07/03 11:19:54;;;;;;;4.78;1.98;;;;;;;;;;5075658;28;20024;-76
2021/07/03 11:22:29;;;;;;;3.13;1.85;;;;;;;;;;5074977;28;20035;-77
2021/07/03 11:24:57;;;;;;;2.90;2.40;;;;;;;;;;5071663;28;20032;-77
2021/07/03 11:27:45;;;;;;;3.85;2.30;;;;;;;;;;5076646;28;20028;-77
2021/07/03 11:30:22;;;;;;;3.03;2.35;;;;;;;;;;5086151;28;20430;-76
2021/07/03 11:32:56;;;;;;;3.90;2.40;;;;;;;;;;5078855;28;20024;-75
2021/07/03 11:35:22;;;;;;;4.47;2.20;;;;;;;;;;5085858;28;20494;-77
2021/07/03 11:37:49;;;;;;;4.53;2.45;;;;;;;;;;5091404;28;20028;-77
2021/07/03 11:40:20;;;;;;;5.45;2.38;;;;;;;;;;5093256;28;20032;-73
2021/07/03 11:42:48;;;;;;;4.63;2.42;;;;;;;;;;5094965;28;20115;-72
2021/07/03 11:45:17;;;;;;;2.90;2.20;;;;;;;;;;5084834;28;20041;-73
2021/07/03 11:47:48;;;;;;;4.47;2.22;;;;;;;;;;5072904;28;20028;-72
2021/07/03 11:50:22;;;;;;;3.42;2.30;;;;;;;;;;5074448;28;20485;-72
2021/07/03 11:52:49;;;;;;;3.97;2.20;;;;;;;;;;5076211;28;20048;-75
2021/07/03 11:55:25;;;;;;;3.75;2.42;;;;;;;;;;5075546;28;20061;-73
2021/07/03 11:57:53;;;;;;;5.50;2.80;;;;;;;;;;5094054;28;20114;-72
2021/07/03 12:00:18;;;;;;;2.80;2.50;;;;;;;;;;5094271;28;20078;-73
2021/07/03 12:02:44;;;;;;;3.97;2.78;;;;;;;;;;5078170;28;20472;-74
2021/07/03 12:05:37;;;;;;;4.53;2.40;;;;;;;;;;5075530;28;20468;-72
2021/07/03 12:08:05;;;;;;;;;;;;;;;;;;5081222;28;20024;-73
2021/07/03 12:10:40;;;;;;;3.15;2.50;;;;;;;;;;5091470;28;19994;-73
2021/07/03 12:13:19;;;;;;;4.78;2.60;;;;;;;;;;5075525;28;20039;-72
2021/07/03 12:16:10;;;;;;;3.03;2.40;;;;;;;;;;5057821;28;20044;-73
2021/07/03 12:18:46;;;;;;;3.03;2.33;;;;;;;;;;5083787;28;20033;-72
2021/07/03 12:21:25;;;;;;;4.38;2.72;;;;;;;;;;5078890;28;20028;-76
2021/07/03 12:23:54;;;;;;;5.28;2.80;;;;;;;;;;5084999;28;20031;-73
2021/07/03 12:26:19;;;;;;;6.57;3.10;;;;;;;;;;5088696;28;20037;-73
2021/07/03 12:29:01;;;;;;;3.50;2.90;;;;;;;;;;5091019;28;20036;-73
2021/07/03 12:31:30;;;;;;;5.00;2.83;;;;;;;;;;5074234;28;20453;-77
2021/07/03 12:34:09;;;;;;;13.68;3.30;;;;;;;;;;5092907;28;20107;-73
2021/07/03 12:36:37;;;;;;;56.38;8.13;;;;;;;;;;5085667;28;20032;-73
2021/07/03 12:39:06;;;;;;;23.13;5.03;;;;;;;;;;5078848;28;20099;-78
2021/07/03 12:41:37;;;;;;;10.32;3.70;;;;;;;;;;5090797;28;20070;-76
2021/07/03 12:44:04;;;;;;;12.67;4.50;;;;;;;;;;5067781;28;20412;-78
2021/07/03 12:46:35;;;;;;;55.13;8.88;;;;;;;;;;5090269;28;20634;-77
2021/07/03 12:49:00;;;;;;;95.85;9.80;;;;;;;;;;5074188;28;20446;-76
2021/07/03 12:51:33;;;;;;;24.90;4.35;;;;;;;;;;5080245;28;20112;-76
2021/07/03 12:54:03;;;;;;;8.48;3.65;;;;;;;;;;5073497;28;20429;-77
2021/07/03 12:56:29;;;;;;;5.05;2.90;;;;;;;;;;5082590;28;20073;-77
2021/07/03 12:59:17;;;;;;;14.85;3.40;;;;;;;;;;5093092;28;20024;-76
2021/07/03 13:01:43;;;;;;;31.77;5.30;;;;;;;;;;5090799;28;20391;-75
2021/07/03 13:04:11;;;;;;;4.70;2.67;;;;;;;;;;5091193;28;20019;-75
2021/07/03 13:06:36;;;;;;;4.70;3.20;;;;;;;;;;5072967;28;20064;-77
2021/07/03 13:09:03;;;;;;;7.32;3.35;;;;;;;;;;5088134;28;20059;-76
2021/07/03 13:11:29;;;;;;;4.38;2.78;;;;;;;;;;5076518;28;20024;-77
2021/07/03 13:13:56;;;;;;;4.05;3.08;;;;;;;;;;5073221;28;20433;-76
2021/07/03 13:16:21;;;;;;;5.75;3.10;;;;;;;;;;5088848;28;20391;-76
2021/07/03 13:18:47;;;;;;;5.55;3.50;;;;;;;;;;5083144;28;20031;-78
2021/07/03 13:21:12;;;;;;;5.43;3.65;;;;;;;;;;5093377;28;20051;-77
2021/07/03 13:23:38;;;;;;;3.55;2.78;;;;;;;;;;5093265;28;20024;-76
2021/07/03 13:26:18;;;;;;;5.63;3.10;;;;;;;;;;5075770;28;20399;-76
2021/07/03 13:29:09;;;;;;;5.20;2.95;;;;;;;;;;5074744;28;20043;-76
2021/07/03 13:31:35;;;;;;;5.22;2.92;;;;;;;;;;5070176;28;20040;-76
2021/07/03 13:34:03;;;;;;;3.95;2.80;;;;;;;;;;5073002;28;20028;-75
2021/07/03 13:36:29;;;;;;;3.17;2.67;;;;;;;;;;5072825;28;20103;-73
2021/07/03 13:39:06;;;;;;;5.68;2.88;;;;;;;;;;5072532;28;20504;-73
2021/07/03 13:41:31;;;;;;;4.95;2.83;;;;;;;;;;5073469;28;20043;-73
2021/07/03 13:43:57;;;;;;;7.03;3.05;;;;;;;;;;5055670;28;20427;-73
2021/07/03 13:46:23;;;;;;;6.07;3.13;;;;;;;;;;5072549;28;20024;-74
2021/07/03 13:48:49;;;;;;;22.95;3.97;;;;;;;;;;5072886;28;20081;-73
2021/07/03 13:51:15;;;;;;;19.55;4.38;;;;;;;;;;5072196;28;20409;-73
2021/07/03 13:53:40;;;;;;;2.80;2.50;;;;;;;;;;5071299;28;20024;-73
2021/07/03 13:56:06;;;;;;;4.22;2.60;;;;;;;;;;5054078;28;20043;-72
2021/07/03 13:58:31;;;;;;;2.97;2.47;;;;;;;;;;5072298;28;20024;-73
2021/07/03 14:01:08;;;;;;;3.50;2.40;;;;;;;;;;5072683;28;20035;-73
2021/07/03 14:03:34;;;;;;;3.08;2.40;;;;;;;;;;5072894;28;20036;-73
2021/07/03 14:06:00;;;;;;;5.47;2.60;;;;;;;;;;5072701;28;20441;-72
2021/07/03 14:08:25;;;;;;;4.22;2.50;;;;;;;;;;5072478;28;20027;-73
2021/07/03 14:10:57;;;;;;;4.88;2.83;;;;;;;;;;5073203;28;20101;-74
2021/07/03 14:13:22;;;;;;;3.55;2.70;;;;;;;;;;5076199;28;20040;-73
2021/07/03 14:15:51;;;;;;;5.30;2.90;;;;;;;;;;5075044;28;20043;-75
2021/07/03 14:18:16;;;;;;;4.15;2.50;;;;;;;;;;5074473;28;20032;-73
2021/07/03 14:20:42;;;;;;;3.78;2.85;;;;;;;;;;5042494;28;20027;-73
2021/07/03 14:23:07;;;;;;;4.03;2.63;;;;;;;;;;5076410;28;20021;-74
2021/07/03 14:25:33;;;;;;;5.78;2.80;;;;;;;;;;5074897;28;20081;-73
2021/07/03 14:27:58;;;;;;;2.88;2.55;;;;;;;;;;5081373;28;20090;-73
2021/07/03 14:30:25;;;;;;;4.13;2.67;;;;;;;;;;5066695;28;20028;-73
2021/07/03 14:32:50;;;;;;;4.10;2.70;;;;;;;;;;5065804;28;20028;-73
2021/07/03 14:35:16;;;;;;;4.32;2.90;;;;;;;;;;5081973;28;20028;-74
2021/07/03 14:37:41;;;;;;;4.95;3.05;;;;;;;;;;5095518;28;20055;-73
2021/07/03 14:40:07;;;;;;;4.55;2.90;;;;;;;;;;5065977;28;20036;-73
2021/07/03 14:42:33;;;;;;;6.47;2.88;;;;;;;;;;5075692;28;20016;-73
2021/07/03 14:45:05;;;;;;;3.50;2.80;;;;;;;;;;5095087;28;20032;-74
2021/07/03 14:47:31;;;;;;;8.90;2.80;;;;;;;;;;5094336;28;20035;-73
2021/07/03 14:50:04;;;;;;;4.85;2.45;;;;;;;;;;5063176;28;20384;-73
2021/07/03 14:52:30;;;;;;;4.90;2.90;;;;;;;;;;5056257;28;20025;-73